sensor_id;sensor_type;location;lat;lon;timestamp;P1;durP1;ratioP1;P2;durP2;ratioP2
78561;SDS011;68963;52.138;5.446;2023-04-24T00:00:06;3.38;;;1.40;;
78561;SDS011;68963;52.138;5.446;2023-04-24T00:02:35;3.63;;;1.40;;
78561;SDS011;68963;52.138;5.446;2023-04-24T00:05:06;4.57;;;1.25;;
78561;SDS011;68963;52.138;5.446;2023-04-24T00:07:34;3.30;;;1.38;;
78561;SDS011;68963;52.138;5.446;2023-04-24T00:10:01;3.15;;;1.33;;
78561;SDS011;68963;52.138;5.446;2023-04-24T00:12:27;3.78;;;1.50;;
78561;SDS011;68963;52.138;5.446;2023-04-24T00:14:54;2.85;;;1.15;;
78561;SDS011;68963;52.138;5.446;2023-04-24T00:17:20;3.28;;;1.30;;
78561;SDS011;68963;52.138;5.446;2023-04-24T00:19:47;3.40;;;1.50;;
78561;SDS011;68963;52.138;5.446;2023-04-24T00:22:16;3.65;;;1.50;;
78561;SDS011;68963;52.138;5.446;2023-04-24T00:24:43;5.05;;;2.03;;
78561;SDS011;68963;52.138;5.446;2023-04-24T00:27:10;4.00;;;2.00;;
78561;SDS011;68963;52.138;5.446;2023-04-24T00:29:36;4.63;;;2.10;;
78561;SDS011;68963;52.138;5.446;2023-04-24T00:32:02;3.90;;;1.70;;
78561;SDS011;68963;52.138;5.446;2023-04-24T00:34:29;4.07;;;2.20;;
78561;SDS011;68963;52.138;5.446;2023-04-24T00:36:56;4.60;;;1.98;;
78561;SDS011;68963;52.138;5.446;2023-04-24T00:39:22;4.40;;;2.10;;
78561;SDS011;68963;52.138;5.446;2023-04-24T00:41:49;4.47;;;2.00;;
78561;SDS011;68963;52.138;5.446;2023-04-24T00:44:17;5.05;;;1.85;;
78561;SDS011;68963;52.138;5.446;2023-04-24T00:46:43;4.20;;;2.00;;
78561;SDS011;68963;52.138;5.446;2023-04-24T00:49:10;4.75;;;2.08;;
78561;SDS011;68963;52.138;5.446;2023-04-24T00:51:37;5.03;;;2.30;;
78561;SDS011;68963;52.138;5.446;2023-04-24T00:54:04;4.22;;;1.98;;
78561;SDS011;68963;52.138;5.446;2023-04-24T00:56:31;4.55;;;2.20;;
78561;SDS011;68963;52.138;5.446;2023-04-24T00:58:58;4.60;;;2.28;;
78561;SDS011;68963;52.138;5.446;2023-04-24T01:01:25;5.63;;;2.40;;
78561;SDS011;68963;52.138;5.446;2023-04-24T01:03:52;4.90;;;2.35;;
78561;SDS011;68963;52.138;5.446;2023-04-24T01:06:19;6.65;;;2.72;;
78561;SDS011;68963;52.138;5.446;2023-04-24T01:08:46;6.25;;;2.88;;
78561;SDS011;68963;52.138;5.446;2023-04-24T01:11:13;6.05;;;2.85;;
78561;SDS011;68963;52.138;5.446;2023-04-24T01:13:40;7.43;;;3.10;;
78561;SDS011;68963;52.138;5.446;2023-04-24T01:16:07;5.93;;;3.00;;
78561;SDS011;68963;52.138;5.446;2023-04-24T01:18:33;6.15;;;3.10;;
78561;SDS011;68963;52.138;5.446;2023-04-24T01:21:01;5.65;;;3.00;;
78561;SDS011;68963;52.138;5.446;2023-04-24T01:23:30;6.00;;;3.47;;
78561;SDS011;68963;52.138;5.446;2023-04-24T01:25:56;6.97;;;3.63;;
78561;SDS011;68963;52.138;5.446;2023-04-24T01:28:23;5.93;;;3.40;;
78561;SDS011;68963;52.138;5.446;2023-04-24T01:30:49;5.90;;;3.35;;
78561;SDS011;68963;52.138;5.446;2023-04-24T01:33:16;6.47;;;3.58;;
78561;SDS011;68963;52.138;5.446;2023-04-24T01:35:42;6.00;;;3.35;;
78561;SDS011;68963;52.138;5.446;2023-04-24T01:38:09;6.78;;;3.60;;
78561;SDS011;68963;52.138;5.446;2023-04-24T01:40:35;6.30;;;3.50;;
78561;SDS011;68963;52.138;5.446;2023-04-24T01:43:02;6.25;;;3.53;;
78561;SDS011;68963;52.138;5.446;2023-04-24T01:45:28;7.18;;;3.85;;
78561;SDS011;68963;52.138;5.446;2023-04-24T01:47:55;7.97;;;3.88;;
78561;SDS011;68963;52.138;5.446;2023-04-24T01:50:22;7.03;;;3.80;;
78561;SDS011;68963;52.138;5.446;2023-04-24T01:52:49;6.88;;;3.78;;
78561;SDS011;68963;52.138;5.446;2023-04-24T01:55:15;6.68;;;3.80;;
78561;SDS011;68963;52.138;5.446;2023-04-24T01:57:42;7.60;;;3.97;;
78561;SDS011;68963;52.138;5.446;2023-04-24T02:00:08;8.13;;;4.22;;
78561;SDS011;68963;52.138;5.446;2023-04-24T02:02:38;8.23;;;4.22;;
78561;SDS011;68963;52.138;5.446;2023-04-24T02:05:06;7.38;;;4.22;;
78561;SDS011;68963;52.138;5.446;2023-04-24T02:07:33;8.75;;;4.28;;
78561;SDS011;68963;52.138;5.446;2023-04-24T02:10:00;6.90;;;3.75;;
78561;SDS011;68963;52.138;5.446;2023-04-24T02:12:26;7.15;;;4.15;;
78561;SDS011;68963;52.138;5.446;2023-04-24T02:14:53;8.10;;;3.95;;
78561;SDS011;68963;52.138;5.446;2023-04-24T02:17:19;9.32;;;4.47;;
78561;SDS011;68963;52.138;5.446;2023-04-24T02:19:46;7.18;;;3.72;;
78561;SDS011;68963;52.138;5.446;2023-04-24T02:22:12;8.25;;;3.95;;
78561;SDS011;68963;52.138;5.446;2023-04-24T02:24:39;7.38;;;3.85;;
78561;SDS011;68963;52.138;5.446;2023-04-24T02:27:05;7.45;;;3.90;;
78561;SDS011;68963;52.138;5.446;2023-04-24T02:29:32;7.55;;;3.40;;
78561;SDS011;68963;52.138;5.446;2023-04-24T02:31:59;8.00;;;3.80;;
78561;SDS011;68963;52.138;5.446;2023-04-24T02:34:25;7.60;;;3.85;;
78561;SDS011;68963;52.138;5.446;2023-04-24T02:36:52;7.00;;;3.60;;
78561;SDS011;68963;52.138;5.446;2023-04-24T02:39:20;6.28;;;3.28;;
78561;SDS011;68963;52.138;5.446;2023-04-24T02:41:46;6.80;;;3.17;;
78561;SDS011;68963;52.138;5.446;2023-04-24T02:44:13;6.95;;;3.38;;
78561;SDS011;68963;52.138;5.446;2023-04-24T02:46:39;6.57;;;3.30;;
78561;SDS011;68963;52.138;5.446;2023-04-24T02:51:34;7.28;;;3.35;;
78561;SDS011;68963;52.138;5.446;2023-04-24T02:54:00;6.38;;;3.17;;
78561;SDS011;68963;52.138;5.446;2023-04-24T02:56:27;6.95;;;3.65;;
78561;SDS011;68963;52.138;5.446;2023-04-24T02:58:53;7.57;;;4.05;;
78561;SDS011;68963;52.138;5.446;2023-04-24T03:01:20;6.85;;;3.65;;
78561;SDS011;68963;52.138;5.446;2023-04-24T03:03:46;7.35;;;3.72;;
78561;SDS011;68963;52.138;5.446;2023-04-24T03:06:13;7.85;;;3.80;;
78561;SDS011;68963;52.138;5.446;2023-04-24T03:08:40;7.55;;;3.72;;
78561;SDS011;68963;52.138;5.446;2023-04-24T03:11:06;8.43;;;3.55;;
78561;SDS011;68963;52.138;5.446;2023-04-24T03:13:33;6.68;;;3.55;;
78561;SDS011;68963;52.138;5.446;2023-04-24T03:15:59;7.70;;;3.60;;
78561;SDS011;68963;52.138;5.446;2023-04-24T03:18:26;7.22;;;3.53;;
78561;SDS011;68963;52.138;5.446;2023-04-24T03:20:52;8.35;;;3.65;;
78561;SDS011;68963;52.138;5.446;2023-04-24T03:23:19;6.97;;;3.53;;
78561;SDS011;68963;52.138;5.446;2023-04-24T03:25:45;7.63;;;3.70;;
78561;SDS011;68963;52.138;5.446;2023-04-24T03:30:40;7.57;;;3.40;;
78561;SDS011;68963;52.138;5.446;2023-04-24T03:33:07;7.88;;;3.45;;
78561;SDS011;68963;52.138;5.446;2023-04-24T03:35:34;8.90;;;3.60;;
78561;SDS011;68963;52.138;5.446;2023-04-24T03:38:00;8.27;;;3.45;;
78561;SDS011;68963;52.138;5.446;2023-04-24T03:40:27;6.15;;;2.83;;
78561;SDS011;68963;52.138;5.446;2023-04-24T03:42:55;6.93;;;3.17;;
78561;SDS011;68963;52.138;5.446;2023-04-24T03:45:22;7.13;;;3.33;;
78561;SDS011;68963;52.138;5.446;2023-04-24T03:47:48;6.97;;;3.30;;
78561;SDS011;68963;52.138;5.446;2023-04-24T03:50:15;6.50;;;3.13;;
78561;SDS011;68963;52.138;5.446;2023-04-24T03:52:41;7.45;;;3.50;;
78561;SDS011;68963;52.138;5.446;2023-04-24T03:55:08;7.30;;;3.58;;
78561;SDS011;68963;52.138;5.446;2023-04-24T03:57:34;6.65;;;2.75;;
78561;SDS011;68963;52.138;5.446;2023-04-24T04:00:01;7.10;;;3.53;;
78561;SDS011;68963;52.138;5.446;2023-04-24T04:02:30;7.53;;;3.58;;
78561;SDS011;68963;52.138;5.446;2023-04-24T04:04:57;8.20;;;3.35;;
78561;SDS011;68963;52.138;5.446;2023-04-24T04:07:23;7.43;;;3.65;;
78561;SDS011;68963;52.138;5.446;2023-04-24T04:09:50;8.70;;;3.47;;
78561;SDS011;68963;52.138;5.446;2023-04-24T04:12:16;7.50;;;3.38;;
78561;SDS011;68963;52.138;5.446;2023-04-24T04:14:43;6.43;;;3.05;;
78561;SDS011;68963;52.138;5.446;2023-04-24T04:17:09;4.72;;;2.20;;
78561;SDS011;68963;52.138;5.446;2023-04-24T04:19:36;5.63;;;2.22;;
78561;SDS011;68963;52.138;5.446;2023-04-24T04:22:02;7.05;;;2.30;;
78561;SDS011;68963;52.138;5.446;2023-04-24T04:24:28;8.23;;;2.40;;
78561;SDS011;68963;52.138;5.446;2023-04-24T04:26:55;4.82;;;1.80;;
78561;SDS011;68963;52.138;5.446;2023-04-24T04:29:24;5.07;;;2.08;;
78561;SDS011;68963;52.138;5.446;2023-04-24T04:31:52;4.57;;;1.98;;
78561;SDS011;68963;52.138;5.446;2023-04-24T04:34:18;5.03;;;2.28;;
78561;SDS011;68963;52.138;5.446;2023-04-24T04:36:45;5.43;;;2.47;;
78561;SDS011;68963;52.138;5.446;2023-04-24T04:39:12;5.18;;;2.30;;
78561;SDS011;68963;52.138;5.446;2023-04-24T04:41:41;6.97;;;2.60;;
78561;SDS011;68963;52.138;5.446;2023-04-24T04:44:07;7.15;;;2.78;;
78561;SDS011;68963;52.138;5.446;2023-04-24T04:46:35;5.85;;;2.40;;
78561;SDS011;68963;52.138;5.446;2023-04-24T04:49:03;7.00;;;2.67;;
78561;SDS011;68963;52.138;5.446;2023-04-24T04:51:29;7.25;;;3.00;;
78561;SDS011;68963;52.138;5.446;2023-04-24T04:53:57;7.90;;;3.47;;
78561;SDS011;68963;52.138;5.446;2023-04-24T04:56:23;7.57;;;3.35;;
78561;SDS011;68963;52.138;5.446;2023-04-24T04:58:50;9.20;;;4.18;;
78561;SDS011;68963;52.138;5.446;2023-04-24T05:01:16;7.93;;;3.75;;
78561;SDS011;68963;52.138;5.446;2023-04-24T05:03:43;8.63;;;4.22;;
78561;SDS011;68963;52.138;5.446;2023-04-24T05:06:10;9.25;;;4.35;;
78561;SDS011;68963;52.138;5.446;2023-04-24T05:08:36;8.82;;;4.20;;
78561;SDS011;68963;52.138;5.446;2023-04-24T05:11:03;8.32;;;3.80;;
78561;SDS011;68963;52.138;5.446;2023-04-24T05:13:29;8.68;;;3.83;;
78561;SDS011;68963;52.138;5.446;2023-04-24T05:16:06;9.40;;;3.90;;
78561;SDS011;68963;52.138;5.446;2023-04-24T05:18:32;8.80;;;3.97;;
78561;SDS011;68963;52.138;5.446;2023-04-24T05:20:59;8.45;;;3.83;;
78561;SDS011;68963;52.138;5.446;2023-04-24T05:23:26;8.23;;;4.03;;
78561;SDS011;68963;52.138;5.446;2023-04-24T05:25:52;8.85;;;3.65;;
78561;SDS011;68963;52.138;5.446;2023-04-24T05:28:19;8.30;;;3.53;;
78561;SDS011;68963;52.138;5.446;2023-04-24T05:30:46;7.10;;;3.35;;
78561;SDS011;68963;52.138;5.446;2023-04-24T05:33:12;7.80;;;3.50;;
78561;SDS011;68963;52.138;5.446;2023-04-24T05:35:40;10.15;;;3.83;;
78561;SDS011;68963;52.138;5.446;2023-04-24T05:38:12;7.65;;;3.20;;
78561;SDS011;68963;52.138;5.446;2023-04-24T05:40:39;7.40;;;3.47;;
78561;SDS011;68963;52.138;5.446;2023-04-24T05:43:06;7.82;;;3.25;;
78561;SDS011;68963;52.138;5.446;2023-04-24T05:45:32;7.65;;;3.10;;
78561;SDS011;68963;52.138;5.446;2023-04-24T05:48:01;7.85;;;3.03;;
78561;SDS011;68963;52.138;5.446;2023-04-24T05:50:28;7.80;;;3.30;;
78561;SDS011;68963;52.138;5.446;2023-04-24T05:52:55;8.60;;;3.10;;
78561;SDS011;68963;52.138;5.446;2023-04-24T05:55:24;8.90;;;3.38;;
78561;SDS011;68963;52.138;5.446;2023-04-24T05:57:51;8.07;;;3.50;;
78561;SDS011;68963;52.138;5.446;2023-04-24T06:00:18;7.88;;;3.20;;
78561;SDS011;68963;52.138;5.446;2023-04-24T06:02:46;6.40;;;2.67;;
78561;SDS011;68963;52.138;5.446;2023-04-24T06:05:13;7.00;;;3.00;;
78561;SDS011;68963;52.138;5.446;2023-04-24T06:07:41;5.45;;;2.30;;
78561;SDS011;68963;52.138;5.446;2023-04-24T06:10:08;6.63;;;2.30;;
78561;SDS011;68963;52.138;5.446;2023-04-24T06:12:35;5.15;;;1.75;;
78561;SDS011;68963;52.138;5.446;2023-04-24T06:15:03;5.80;;;1.70;;
78561;SDS011;68963;52.138;5.446;2023-04-24T06:17:30;5.90;;;2.05;;
78561;SDS011;68963;52.138;5.446;2023-04-24T06:22:24;4.43;;;1.30;;
78561;SDS011;68963;52.138;5.446;2023-04-24T06:24:51;3.72;;;1.20;;
78561;SDS011;68963;52.138;5.446;2023-04-24T06:27:17;3.35;;;1.10;;
78561;SDS011;68963;52.138;5.446;2023-04-24T06:29:44;5.50;;;1.20;;
78561;SDS011;68963;52.138;5.446;2023-04-24T06:32:10;3.50;;;1.02;;
78561;SDS011;68963;52.138;5.446;2023-04-24T06:34:37;4.32;;;1.30;;
78561;SDS011;68963;52.138;5.446;2023-04-24T06:37:03;4.15;;;1.13;;
78561;SDS011;68963;52.138;5.446;2023-04-24T06:39:30;4.93;;;1.13;;
78561;SDS011;68963;52.138;5.446;2023-04-24T06:41:57;4.07;;;1.33;;
78561;SDS011;68963;52.138;5.446;2023-04-24T06:44:23;5.38;;;1.90;;
78561;SDS011;68963;52.138;5.446;2023-04-24T06:46:50;7.28;;;2.80;;
78561;SDS011;68963;52.138;5.446;2023-04-24T06:49:16;7.70;;;3.60;;
78561;SDS011;68963;52.138;5.446;2023-04-24T06:51:43;9.63;;;4.45;;
78561;SDS011;68963;52.138;5.446;2023-04-24T06:54:10;11.77;;;5.30;;
78561;SDS011;68963;52.138;5.446;2023-04-24T06:56:36;11.88;;;5.63;;
78561;SDS011;68963;52.138;5.446;2023-04-24T06:59:03;14.48;;;6.30;;
78561;SDS011;68963;52.138;5.446;2023-04-24T07:01:30;14.55;;;6.13;;
78561;SDS011;68963;52.138;5.446;2023-04-24T07:03:56;15.88;;;6.50;;
78561;SDS011;68963;52.138;5.446;2023-04-24T07:06:23;14.30;;;6.35;;
78561;SDS011;68963;52.138;5.446;2023-04-24T07:08:50;12.70;;;6.47;;
78561;SDS011;68963;52.138;5.446;2023-04-24T07:11:17;12.75;;;6.05;;
78561;SDS011;68963;52.138;5.446;2023-04-24T07:13:43;15.25;;;6.65;;
78561;SDS011;68963;52.138;5.446;2023-04-24T07:16:10;15.85;;;6.85;;
78561;SDS011;68963;52.138;5.446;2023-04-24T07:18:37;16.52;;;6.47;;
78561;SDS011;68963;52.138;5.446;2023-04-24T07:21:05;16.98;;;7.15;;
78561;SDS011;68963;52.138;5.446;2023-04-24T07:23:33;15.32;;;7.78;;
78561;SDS011;68963;52.138;5.446;2023-04-24T07:25:59;17.05;;;7.38;;
78561;SDS011;68963;52.138;5.446;2023-04-24T07:28:26;16.60;;;6.90;;
78561;SDS011;68963;52.138;5.446;2023-04-24T07:30:53;13.80;;;6.93;;
78561;SDS011;68963;52.138;5.446;2023-04-24T07:33:20;16.38;;;7.13;;
78561;SDS011;68963;52.138;5.446;2023-04-24T07:35:47;13.45;;;6.70;;
78561;SDS011;68963;52.138;5.446;2023-04-24T07:38:14;17.80;;;7.22;;
78561;SDS011;68963;52.138;5.446;2023-04-24T07:40:40;16.85;;;6.78;;
78561;SDS011;68963;52.138;5.446;2023-04-24T07:43:07;13.77;;;6.90;;
78561;SDS011;68963;52.138;5.446;2023-04-24T07:45:33;14.13;;;6.55;;
78561;SDS011;68963;52.138;5.446;2023-04-24T07:48:03;15.93;;;6.80;;
78561;SDS011;68963;52.138;5.446;2023-04-24T07:50:30;15.25;;;6.78;;
78561;SDS011;68963;52.138;5.446;2023-04-24T07:52:56;16.83;;;6.28;;
78561;SDS011;68963;52.138;5.446;2023-04-24T07:55:23;16.73;;;6.82;;
78561;SDS011;68963;52.138;5.446;2023-04-24T07:57:53;18.20;;;6.65;;
78561;SDS011;68963;52.138;5.446;2023-04-24T08:00:19;15.88;;;7.05;;
78561;SDS011;68963;52.138;5.446;2023-04-24T08:02:47;17.10;;;6.18;;
78561;SDS011;68963;52.138;5.446;2023-04-24T08:05:14;13.38;;;6.18;;
78561;SDS011;68963;52.138;5.446;2023-04-24T08:07:40;17.83;;;6.72;;
78561;SDS011;68963;52.138;5.446;2023-04-24T08:10:11;16.67;;;7.65;;
78561;SDS011;68963;52.138;5.446;2023-04-24T08:12:38;13.50;;;6.60;;
78561;SDS011;68963;52.138;5.446;2023-04-24T08:15:05;17.50;;;6.70;;
78561;SDS011;68963;52.138;5.446;2023-04-24T08:17:33;11.55;;;5.97;;
78561;SDS011;68963;52.138;5.446;2023-04-24T08:20:02;10.23;;;5.75;;
78561;SDS011;68963;52.138;5.446;2023-04-24T08:22:31;14.20;;;5.20;;
78561;SDS011;68963;52.138;5.446;2023-04-24T08:24:59;11.23;;;4.95;;
78561;SDS011;68963;52.138;5.446;2023-04-24T08:27:26;12.18;;;4.65;;
78561;SDS011;68963;52.138;5.446;2023-04-24T08:29:53;12.77;;;4.65;;
78561;SDS011;68963;52.138;5.446;2023-04-24T08:32:20;12.43;;;5.15;;
78561;SDS011;68963;52.138;5.446;2023-04-24T08:34:47;10.60;;;4.07;;
78561;SDS011;68963;52.138;5.446;2023-04-24T08:37:15;11.65;;;4.38;;
78561;SDS011;68963;52.138;5.446;2023-04-24T08:39:41;12.27;;;3.95;;
78561;SDS011;68963;52.138;5.446;2023-04-24T08:42:09;9.10;;;3.55;;
78561;SDS011;68963;52.138;5.446;2023-04-24T08:47:04;9.77;;;4.05;;
78561;SDS011;68963;52.138;5.446;2023-04-24T08:49:31;12.20;;;3.40;;
78561;SDS011;68963;52.138;5.446;2023-04-24T08:51:58;13.07;;;3.63;;
78561;SDS011;68963;52.138;5.446;2023-04-24T08:54:25;13.20;;;3.60;;
78561;SDS011;68963;52.138;5.446;2023-04-24T08:56:53;14.10;;;3.55;;
78561;SDS011;68963;52.138;5.446;2023-04-24T08:59:24;13.57;;;3.13;;
78561;SDS011;68963;52.138;5.446;2023-04-24T09:01:54;7.63;;;2.05;;
78561;SDS011;68963;52.138;5.446;2023-04-24T09:04:22;10.15;;;2.38;;
78561;SDS011;68963;52.138;5.446;2023-04-24T09:06:52;10.40;;;2.28;;
78561;SDS011;68963;52.138;5.446;2023-04-24T09:09:22;12.23;;;2.67;;
78561;SDS011;68963;52.138;5.446;2023-04-24T09:11:50;10.60;;;2.80;;
78561;SDS011;68963;52.138;5.446;2023-04-24T09:14:19;10.95;;;2.20;;
78561;SDS011;68963;52.138;5.446;2023-04-24T09:16:47;11.98;;;2.30;;
78561;SDS011;68963;52.138;5.446;2023-04-24T09:19:14;8.48;;;2.22;;
78561;SDS011;68963;52.138;5.446;2023-04-24T09:21:41;9.77;;;2.50;;
78561;SDS011;68963;52.138;5.446;2023-04-24T09:24:15;9.32;;;2.50;;
78561;SDS011;68963;52.138;5.446;2023-04-24T09:26:44;9.70;;;2.47;;
78561;SDS011;68963;52.138;5.446;2023-04-24T09:29:16;10.32;;;2.15;;
78561;SDS011;68963;52.138;5.446;2023-04-24T09:31:43;7.00;;;2.40;;
78561;SDS011;68963;52.138;5.446;2023-04-24T09:34:11;9.68;;;2.22;;
78561;SDS011;68963;52.138;5.446;2023-04-24T09:36:39;10.32;;;2.40;;
78561;SDS011;68963;52.138;5.446;2023-04-24T09:39:09;9.02;;;2.13;;
78561;SDS011;68963;52.138;5.446;2023-04-24T09:41:51;8.63;;;2.10;;
78561;SDS011;68963;52.138;5.446;2023-04-24T09:44:20;9.00;;;2.13;;
78561;SDS011;68963;52.138;5.446;2023-04-24T09:46:49;7.60;;;2.50;;
78561;SDS011;68963;52.138;5.446;2023-04-24T09:49:23;9.10;;;2.20;;
78561;SDS011;68963;52.138;5.446;2023-04-24T09:52:03;10.02;;;2.10;;
78561;SDS011;68963;52.138;5.446;2023-04-24T09:54:30;8.88;;;2.53;;
78561;SDS011;68963;52.138;5.446;2023-04-24T09:56:57;6.75;;;2.08;;
78561;SDS011;68963;52.138;5.446;2023-04-24T09:59:26;10.80;;;2.40;;
78561;SDS011;68963;52.138;5.446;2023-04-24T10:01:52;7.88;;;2.20;;
78561;SDS011;68963;52.138;5.446;2023-04-24T10:04:21;7.22;;;2.20;;
78561;SDS011;68963;52.138;5.446;2023-04-24T10:06:53;9.75;;;2.13;;
78561;SDS011;68963;52.138;5.446;2023-04-24T10:09:22;8.85;;;2.25;;
78561;SDS011;68963;52.138;5.446;2023-04-24T10:11:50;8.68;;;2.05;;
78561;SDS011;68963;52.138;5.446;2023-04-24T10:14:20;9.32;;;2.40;;
78561;SDS011;68963;52.138;5.446;2023-04-24T10:16:54;8.10;;;2.03;;
78561;SDS011;68963;52.138;5.446;2023-04-24T10:19:25;7.97;;;1.90;;
78561;SDS011;68963;52.138;5.446;2023-04-24T10:21:52;7.20;;;2.00;;
78561;SDS011;68963;52.138;5.446;2023-04-24T10:24:20;6.82;;;1.85;;
78561;SDS011;68963;52.138;5.446;2023-04-24T10:26:47;8.82;;;1.80;;
78561;SDS011;68963;52.138;5.446;2023-04-24T10:29:18;7.28;;;1.73;;
78561;SDS011;68963;52.138;5.446;2023-04-24T10:31:45;8.20;;;2.30;;
78561;SDS011;68963;52.138;5.446;2023-04-24T10:34:14;5.63;;;1.52;;
78561;SDS011;68963;52.138;5.446;2023-04-24T10:36:43;4.80;;;1.67;;
78561;SDS011;68963;52.138;5.446;2023-04-24T10:39:14;5.57;;;1.00;;
78561;SDS011;68963;52.138;5.446;2023-04-24T10:41:42;3.70;;;1.00;;
78561;SDS011;68963;52.138;5.446;2023-04-24T10:44:10;4.53;;;1.05;;
78561;SDS011;68963;52.138;5.446;2023-04-24T10:46:38;4.97;;;1.10;;
78561;SDS011;68963;52.138;5.446;2023-04-24T10:49:11;4.97;;;1.23;;
78561;SDS011;68963;52.138;5.446;2023-04-24T10:51:48;5.28;;;1.00;;
78561;SDS011;68963;52.138;5.446;2023-04-24T10:56:52;6.40;;;0.90;;
78561;SDS011;68963;52.138;5.446;2023-04-24T10:59:34;5.57;;;0.80;;
78561;SDS011;68963;52.138;5.446;2023-04-24T11:02:01;5.10;;;1.00;;
78561;SDS011;68963;52.138;5.446;2023-04-24T11:04:29;4.07;;;0.98;;
78561;SDS011;68963;52.138;5.446;2023-04-24T11:09:26;5.72;;;1.20;;
78561;SDS011;68963;52.138;5.446;2023-04-24T11:12:04;3.35;;;0.80;;
78561;SDS011;68963;52.138;5.446;2023-04-24T11:17:37;4.32;;;0.90;;
78561;SDS011;68963;52.138;5.446;2023-04-24T11:22:52;4.40;;;1.10;;
78561;SDS011;68963;52.138;5.446;2023-04-24T11:25:21;5.53;;;1.30;;
78561;SDS011;68963;52.138;5.446;2023-04-24T11:27:52;5.90;;;1.15;;
78561;SDS011;68963;52.138;5.446;2023-04-24T11:30:29;5.63;;;0.93;;
78561;SDS011;68963;52.138;5.446;2023-04-24T11:33:01;5.28;;;1.30;;
78561;SDS011;68963;52.138;5.446;2023-04-24T11:35:29;4.97;;;1.00;;
78561;SDS011;68963;52.138;5.446;2023-04-24T11:38:02;3.75;;;0.80;;
78561;SDS011;68963;52.138;5.446;2023-04-24T11:40:48;5.70;;;1.30;;
78561;SDS011;68963;52.138;5.446;2023-04-24T11:43:16;4.32;;;0.98;;
78561;SDS011;68963;52.138;5.446;2023-04-24T11:45:47;4.72;;;1.20;;
78561;SDS011;68963;52.138;5.446;2023-04-24T11:48:18;5.60;;;1.00;;
78561;SDS011;68963;52.138;5.446;2023-04-24T11:50:48;6.63;;;0.90;;
78561;SDS011;68963;52.138;5.446;2023-04-24T11:53:15;3.72;;;0.90;;
78561;SDS011;68963;52.138;5.446;2023-04-24T11:55:41;3.50;;;0.85;;
78561;SDS011;68963;52.138;5.446;2023-04-24T11:58:08;3.90;;;0.90;;
78561;SDS011;68963;52.138;5.446;2023-04-24T12:00:35;3.95;;;0.70;;
78561;SDS011;68963;52.138;5.446;2023-04-24T12:03:08;3.20;;;0.75;;
78561;SDS011;68963;52.138;5.446;2023-04-24T12:05:36;2.38;;;0.70;;
78561;SDS011;68963;52.138;5.446;2023-04-24T12:08:04;5.03;;;0.55;;
78561;SDS011;68963;52.138;5.446;2023-04-24T12:10:31;5.03;;;0.77;;
78561;SDS011;68963;52.138;5.446;2023-04-24T12:12:59;4.00;;;0.80;;
78561;SDS011;68963;52.138;5.446;2023-04-24T12:15:26;4.60;;;0.70;;
78561;SDS011;68963;52.138;5.446;2023-04-24T12:17:54;4.93;;;1.30;;
78561;SDS011;68963;52.138;5.446;2023-04-24T12:20:26;5.65;;;1.10;;
78561;SDS011;68963;52.138;5.446;2023-04-24T12:22:55;4.90;;;0.80;;
78561;SDS011;68963;52.138;5.446;2023-04-24T12:27:54;7.63;;;1.05;;
78561;SDS011;68963;52.138;5.446;2023-04-24T12:30:26;3.78;;;0.75;;
78561;SDS011;68963;52.138;5.446;2023-04-24T12:32:56;3.83;;;0.75;;
78561;SDS011;68963;52.138;5.446;2023-04-24T12:35:24;6.35;;;1.10;;
78561;SDS011;68963;52.138;5.446;2023-04-24T12:37:53;5.68;;;1.00;;
78561;SDS011;68963;52.138;5.446;2023-04-24T12:40:20;6.97;;;1.10;;
78561;SDS011;68963;52.138;5.446;2023-04-24T12:42:49;5.13;;;1.13;;
78561;SDS011;68963;52.138;5.446;2023-04-24T12:45:17;6.35;;;1.20;;
78561;SDS011;68963;52.138;5.446;2023-04-24T12:47:45;7.72;;;1.17;;
78561;SDS011;68963;52.138;5.446;2023-04-24T12:50:13;5.78;;;1.10;;
78561;SDS011;68963;52.138;5.446;2023-04-24T12:52:41;6.15;;;1.10;;
78561;SDS011;68963;52.138;5.446;2023-04-24T12:55:08;8.23;;;1.20;;
78561;SDS011;68963;52.138;5.446;2023-04-24T12:57:36;9.25;;;1.20;;
78561;SDS011;68963;52.138;5.446;2023-04-24T13:02:32;7.88;;;1.60;;
78561;SDS011;68963;52.138;5.446;2023-04-24T13:05:00;9.43;;;1.67;;
78561;SDS011;68963;52.138;5.446;2023-04-24T13:07:27;7.55;;;1.50;;
78561;SDS011;68963;52.138;5.446;2023-04-24T13:09:54;6.53;;;1.50;;
78561;SDS011;68963;52.138;5.446;2023-04-24T13:12:22;6.63;;;1.30;;
78561;SDS011;68963;52.138;5.446;2023-04-24T13:15:01;8.90;;;1.85;;
78561;SDS011;68963;52.138;5.446;2023-04-24T13:17:28;8.77;;;1.85;;
78561;SDS011;68963;52.138;5.446;2023-04-24T13:19:55;9.27;;;1.55;;
78561;SDS011;68963;52.138;5.446;2023-04-24T13:22:21;7.78;;;1.67;;
78561;SDS011;68963;52.138;5.446;2023-04-24T13:24:48;14.25;;;2.33;;
78561;SDS011;68963;52.138;5.446;2023-04-24T13:27:18;7.63;;;1.75;;
78561;SDS011;68963;52.138;5.446;2023-04-24T13:29:45;9.15;;;1.70;;
78561;SDS011;68963;52.138;5.446;2023-04-24T13:32:12;11.63;;;2.10;;
78561;SDS011;68963;52.138;5.446;2023-04-24T13:34:40;9.32;;;1.90;;
78561;SDS011;68963;52.138;5.446;2023-04-24T13:37:06;7.95;;;1.98;;
78561;SDS011;68963;52.138;5.446;2023-04-24T13:39:34;9.82;;;1.80;;
78561;SDS011;68963;52.138;5.446;2023-04-24T13:42:02;7.45;;;1.88;;
78561;SDS011;68963;52.138;5.446;2023-04-24T13:44:30;9.20;;;1.80;;
78561;SDS011;68963;52.138;5.446;2023-04-24T13:46:57;8.50;;;1.88;;
78561;SDS011;68963;52.138;5.446;2023-04-24T13:49:24;8.57;;;2.08;;
78561;SDS011;68963;52.138;5.446;2023-04-24T13:51:55;10.02;;;1.88;;
78561;SDS011;68963;52.138;5.446;2023-04-24T13:54:28;7.80;;;1.80;;
78561;SDS011;68963;52.138;5.446;2023-04-24T13:56:57;9.35;;;2.20;;
78561;SDS011;68963;52.138;5.446;2023-04-24T13:59:24;6.85;;;1.88;;
78561;SDS011;68963;52.138;5.446;2023-04-24T14:01:51;12.63;;;2.80;;
78561;SDS011;68963;52.138;5.446;2023-04-24T14:04:18;8.02;;;2.22;;
78561;SDS011;68963;52.138;5.446;2023-04-24T14:06:45;7.70;;;2.50;;
78561;SDS011;68963;52.138;5.446;2023-04-24T14:09:11;10.52;;;3.45;;
78561;SDS011;68963;52.138;5.446;2023-04-24T14:11:39;10.27;;;2.40;;
78561;SDS011;68963;52.138;5.446;2023-04-24T14:14:05;9.38;;;3.03;;
78561;SDS011;68963;52.138;5.446;2023-04-24T14:16:32;13.65;;;2.75;;
78561;SDS011;68963;52.138;5.446;2023-04-24T14:18:59;9.48;;;2.40;;
78561;SDS011;68963;52.138;5.446;2023-04-24T14:21:25;8.18;;;2.15;;
78561;SDS011;68963;52.138;5.446;2023-04-24T14:23:52;11.13;;;2.10;;
78561;SDS011;68963;52.138;5.446;2023-04-24T14:26:19;7.22;;;2.13;;
78561;SDS011;68963;52.138;5.446;2023-04-24T14:28:52;9.13;;;2.20;;
78561;SDS011;68963;52.138;5.446;2023-04-24T14:31:32;9.57;;;2.47;;
78561;SDS011;68963;52.138;5.446;2023-04-24T14:33:59;10.20;;;2.10;;
78561;SDS011;68963;52.138;5.446;2023-04-24T14:36:25;11.18;;;2.40;;
78561;SDS011;68963;52.138;5.446;2023-04-24T14:38:52;11.60;;;2.85;;
78561;SDS011;68963;52.138;5.446;2023-04-24T14:41:18;7.78;;;2.10;;
78561;SDS011;68963;52.138;5.446;2023-04-24T14:43:45;9.98;;;2.28;;
78561;SDS011;68963;52.138;5.446;2023-04-24T14:46:12;6.70;;;2.40;;
78561;SDS011;68963;52.138;5.446;2023-04-24T14:48:39;12.27;;;3.13;;
78561;SDS011;68963;52.138;5.446;2023-04-24T14:51:06;7.68;;;2.38;;
78561;SDS011;68963;52.138;5.446;2023-04-24T14:53:32;11.57;;;2.80;;
78561;SDS011;68963;52.138;5.446;2023-04-24T14:56:00;10.00;;;2.60;;
78561;SDS011;68963;52.138;5.446;2023-04-24T14:58:27;11.32;;;4.93;;
78561;SDS011;68963;52.138;5.446;2023-04-24T15:00:53;13.38;;;3.72;;
78561;SDS011;68963;52.138;5.446;2023-04-24T15:03:20;12.27;;;4.15;;
78561;SDS011;68963;52.138;5.446;2023-04-24T15:05:48;10.13;;;2.92;;
78561;SDS011;68963;52.138;5.446;2023-04-24T15:08:17;12.18;;;3.10;;
78561;SDS011;68963;52.138;5.446;2023-04-24T15:10:44;9.55;;;3.10;;
78561;SDS011;68963;52.138;5.446;2023-04-24T15:13:11;9.75;;;2.80;;